Vekso, Denmark
Current Conditions -  °F | °C
As of 6:50 PM on Saturday 25 Oct 2014 (Local Time) from EKRK Reporting Station
Haze Haze  
Wind Chill: 52°   Ceiling: 400
Heat Index: 52°   Visibility: 1.7mi
Dew Point: 52°   Wind: 9mph
Humidity: 100%   Direction: 180°S
Pressure: 30.03"   Gusts: NA
Location:  55.75°N, 12.24°E
Report Text: EKRK 251650Z AUTO 18008KT 2800NDV BR SCT002/// OVC004///11/11 Q1017
Loading
Personal Weather Stations






























Interactive Weather Map
Tropical Storm Tracking
New forecast layout! Learn more

10-Day Weather Forecast

Advertisements
Track Severe Weather on mobile